Time;durP1;ratioP1;P1;durP2;ratioP2;P2;SDS_P1;SDS_P2;PMS_P1;PMS_P2;Temp;Humidity;BMP_temperature;BMP_pressure;BME280_temperature;BME280_humidity;BME280_pressure;Samples;Min_cycle;Max_cycle;Signal;HPM_P1;HPM_P2
2022/01/06 00:01:41;;;;;;;17.47;16.57;;;4.90;83.20;;;;;;5068572;28;20044;-80
2022/01/06 00:04:07;;;;;;;16.87;16.07;;;4.90;83.30;;;;;;5052728;28;20489;-81
2022/01/06 00:06:38;;;;;;;18.07;17.07;;;4.90;83.30;;;;;;5052665;28;20037;-81
2022/01/06 00:09:05;;;;;;;;;;;4.90;83.30;;;;;;5100025;28;20021;-81
2022/01/06 00:11:31;;;;;;;17.17;16.17;;;4.90;83.30;;;;;;5069683;28;19919;-81
2022/01/06 00:14:04;;;;;;;16.37;15.47;;;4.90;83.20;;;;;;5051120;28;20024;-81
2022/01/06 00:16:45;;;;;;;17.50;16.60;;;4.90;83.20;;;;;;5051365;28;20072;-81
2022/01/06 00:24:24;;;;;;;16.40;15.60;;;4.80;83.10;;;;;;5059003;28;20104;-81
2022/01/06 00:26:50;;;;;;;16.77;15.77;;;4.80;83.20;;;;;;5105118;28;20199;-81
2022/01/06 00:29:17;;;;;;;15.60;14.87;;;4.80;83.30;;;;;;5085620;28;20036;-81
2022/01/06 00:31:43;;;;;;;16.40;15.53;;;4.80;83.20;;;;;;5084840;28;20036;-81
2022/01/06 00:34:10;;;;;;;16.43;15.63;;;4.80;83.30;;;;;;5085561;28;20032;-81
2022/01/06 00:36:38;;;;;;;15.30;14.60;;;4.70;83.30;;;;;;5052710;28;20409;-81
2022/01/06 00:39:04;;;;;;;15.37;14.63;;;4.70;83.30;;;;;;5054211;28;20029;-81
2022/01/06 00:41:33;;;;;;;15.73;15.03;;;4.70;83.20;;;;;;5069695;28;20040;-81
2022/01/06 00:43:59;;;;;;;17.17;16.17;;;4.70;83.30;;;;;;5069863;28;20066;-80
2022/01/06 00:46:25;;;;;;;16.43;15.60;;;4.80;83.40;;;;;;5068216;28;20040;-81
2022/01/06 00:48:51;;;;;;;16.70;15.70;;;4.80;83.30;;;;;;5069264;28;20024;-81
2022/01/06 00:51:18;;;;;;;15.90;15.20;;;4.80;83.20;;;;;;5074917;28;20032;-80
2022/01/06 00:53:44;;;;;;;17.67;16.77;;;4.80;83.20;;;;;;5074014;28;20047;-81
2022/01/06 00:56:10;;;;;;;18.37;17.07;;;4.80;83.10;;;;;;5040915;28;20049;-81
2022/01/06 00:58:36;;;;;;;16.97;16.07;;;4.90;83.20;;;;;;5074095;28;20401;-81
2022/01/06 01:01:02;;;;;;;16.53;15.73;;;4.90;83.20;;;;;;5071779;28;20037;-81
2022/01/06 01:03:28;;;;;;;16.17;15.37;;;4.90;83.20;;;;;;5072820;28;20481;-81
2022/01/06 01:05:55;;;;;;;15.93;15.07;;;5.00;83.10;;;;;;5070726;28;20486;-81
2022/01/06 01:08:22;;;;;;;15.27;14.57;;;5.00;83.00;;;;;;5072662;28;20032;-81
2022/01/06 01:10:49;;;;;;;15.67;14.97;;;5.00;83.00;;;;;;5072623;28;20039;-81
2022/01/06 01:13:15;;;;;;;16.13;15.33;;;5.00;83.00;;;;;;5055647;28;20024;-80
2022/01/06 01:15:47;;;;;;;16.87;15.67;;;5.00;83.00;;;;;;5072166;28;20044;-81
2022/01/06 01:18:17;;;;;;;15.90;15.10;;;5.10;83.00;;;;;;5073238;28;20048;-81
2022/01/06 01:20:43;;;;;;;16.00;15.23;;;5.10;83.00;;;;;;5072338;28;20032;-81
2022/01/06 01:23:09;;;;;;;15.50;14.80;;;5.10;83.00;;;;;;5073545;28;20393;-81
2022/01/06 01:25:35;;;;;;;16.00;15.30;;;5.10;83.00;;;;;;5073306;28;20050;-81
2022/01/06 01:28:03;;;;;;;16.33;15.53;;;5.10;82.90;;;;;;5073188;28;20393;-81
2022/01/06 01:30:32;;;;;;;18.63;17.03;;;5.10;83.00;;;;;;5070852;28;20045;-81
2022/01/06 01:32:59;;;;;;;15.73;15.03;;;5.10;83.00;;;;;;5074195;28;20033;-81
2022/01/06 01:35:31;;;;;;;16.33;15.53;;;5.00;83.00;;;;;;5071855;28;20032;-81
2022/01/06 01:37:58;;;;;;;16.33;15.43;;;5.00;83.00;;;;;;5056337;28;20051;-81
2022/01/06 01:40:25;;;;;;;16.80;16.00;;;5.00;83.00;;;;;;5072136;28;20028;-81
2022/01/06 01:42:51;;;;;;;15.90;15.20;;;5.00;83.10;;;;;;5071768;28;20023;-81
2022/01/06 01:45:17;;;;;;;15.50;14.80;;;4.90;83.10;;;;;;5054710;28;20052;-81
2022/01/06 01:47:45;;;;;;;16.40;15.60;;;4.90;83.20;;;;;;5090458;28;20033;-80
2022/01/06 01:50:15;;;;;;;15.87;15.17;;;4.90;83.20;;;;;;5088496;28;20032;-81
2022/01/06 01:52:47;;;;;;;15.47;14.77;;;4.90;83.20;;;;;;5087962;28;20031;-80
2022/01/06 01:55:34;;;;;;;16.30;15.43;;;4.90;83.20;;;;;;5105447;28;20293;-81
2022/01/06 01:58:00;;;;;;;16.00;15.20;;;4.80;83.20;;;;;;5071524;28;20381;-80
2022/01/06 02:00:28;;;;;;;16.27;15.57;;;4.80;83.10;;;;;;5071000;28;20029;-80
2022/01/06 02:02:54;;;;;;;18.53;17.37;;;4.80;83.20;;;;;;5069703;28;20044;-81
2022/01/06 02:05:28;;;;;;;15.63;14.93;;;4.80;83.20;;;;;;5071904;28;20397;-80
2022/01/06 02:08:01;;;;;;;16.03;15.33;;;4.80;83.70;;;;;;5055943;28;20021;-81
2022/01/06 02:10:28;;;;;;;15.37;14.67;;;4.70;83.20;;;;;;5071193;28;20025;-80
2022/01/06 02:12:56;;;;;;;15.20;14.50;;;4.70;83.30;;;;;;5053133;28;20501;-81
2022/01/06 02:15:22;;;;;;;16.73;15.83;;;4.70;83.30;;;;;;5054441;28;20029;-81
2022/01/06 02:17:49;;;;;;;15.60;14.90;;;4.60;83.30;;;;;;5107330;28;20032;-81
2022/01/06 02:20:16;;;;;;;15.73;15.03;;;4.60;83.30;;;;;;5104800;28;20021;-81
2022/01/06 02:22:42;;;;;;;16.63;15.43;;;4.60;83.40;;;;;;5104738;28;20024;-81
2022/01/06 02:25:13;;;;;;;15.63;14.90;;;4.60;83.40;;;;;;5087861;28;20037;-81
2022/01/06 02:27:39;;;;;;;16.13;15.32;;;4.50;83.40;;;;;;5070077;28;20032;-80
2022/01/06 02:30:06;;;;;;;15.90;15.17;;;4.50;83.40;;;;;;5072344;28;20041;-80
2022/01/06 02:32:32;;;;;;;17.10;16.10;;;4.50;83.40;;;;;;5053173;28;20033;-81
2022/01/06 02:35:01;;;;;;;15.60;14.90;;;4.50;83.40;;;;;;5071060;28;20393;-80
2022/01/06 02:37:27;;;;;;;15.87;15.17;;;4.40;83.30;;;;;;5070787;28;20028;-80
2022/01/06 02:39:53;;;;;;;15.90;15.20;;;4.40;83.40;;;;;;5072222;28;20119;-80
2022/01/06 02:42:19;;;;;;;16.03;15.27;;;4.40;83.40;;;;;;5053917;28;20041;-80
2022/01/06 02:44:45;;;;;;;15.57;14.87;;;4.40;83.50;;;;;;5089588;28;20092;-81
2022/01/06 02:47:11;;;;;;;15.60;14.90;;;4.40;84.30;;;;;;5086977;28;20047;-80
2022/01/06 02:49:37;;;;;;;15.70;15.00;;;4.40;83.50;;;;;;5103006;28;20029;-80
2022/01/06 02:52:04;;;;;;;15.70;15.00;;;4.30;83.50;;;;;;5070440;28;20396;-81
2022/01/06 02:54:30;;;;;;;15.87;15.07;;;4.30;83.50;;;;;;5054262;28;20029;-80
2022/01/06 02:56:56;;;;;;;15.20;14.50;;;4.30;83.50;;;;;;5106127;28;20040;-80
2022/01/06 02:59:22;;;;;;;15.80;15.00;;;4.30;83.50;;;;;;5104124;28;20028;-80
2022/01/06 03:01:48;;;;;;;15.77;15.07;;;4.30;83.60;;;;;;5102527;28;20033;-80
2022/01/06 03:04:14;;;;;;;15.53;14.83;;;4.20;83.50;;;;;;5066628;28;20047;-80
2022/01/06 03:06:40;;;;;;;16.43;15.63;;;4.20;84.30;;;;;;5061682;28;20044;-80
2022/01/06 03:09:07;;;;;;;16.10;15.37;;;4.20;83.60;;;;;;5053239;28;20027;-80
2022/01/06 03:11:33;;;;;;;15.13;14.43;;;4.20;83.60;;;;;;5062422;28;20052;-80
2022/01/06 03:14:00;;;;;;;16.77;15.87;;;4.20;83.60;;;;;;5060737;28;20029;-80
2022/01/06 03:16:26;;;;;;;16.33;15.53;;;4.20;83.60;;;;;;5088537;28;20057;-80
2022/01/06 03:18:52;;;;;;;15.53;14.83;;;4.10;83.50;;;;;;5070243;28;20033;-80
2022/01/06 03:21:18;;;;;;;15.23;14.53;;;4.20;83.60;;;;;;5069226;28;20048;-80
2022/01/06 03:23:44;;;;;;;15.70;15.00;;;4.10;83.60;;;;;;5056735;28;20025;-80
2022/01/06 03:26:10;;;;;;;15.80;14.90;;;4.10;83.60;;;;;;5062253;28;20048;-80
2022/01/06 03:28:37;;;;;;;16.30;15.50;;;4.10;83.70;;;;;;5095901;28;20017;-80
2022/01/06 03:31:03;;;;;;;15.90;15.20;;;4.10;83.70;;;;;;5071518;28;20036;-81
2022/01/06 03:33:29;;;;;;;16.17;15.30;;;4.10;83.60;;;;;;5084341;28;20425;-81
2022/01/06 03:35:55;;;;;;;15.90;15.10;;;4.00;83.50;;;;;;5093654;28;20033;-81
2022/01/06 03:38:21;;;;;;;15.17;14.47;;;4.00;83.40;;;;;;5070179;28;20388;-80
2022/01/06 03:40:47;;;;;;;16.50;15.47;;;4.00;83.60;;;;;;5071074;28;20029;-81
2022/01/06 03:43:13;;;;;;;15.40;14.70;;;3.90;83.50;;;;;;5069410;28;20041;-81
2022/01/06 03:45:39;;;;;;;15.50;14.80;;;4.00;83.50;;;;;;5070438;28;20512;-80
2022/01/06 03:48:06;;;;;;;15.23;14.23;;;3.90;83.50;;;;;;5072310;28;20021;-81
2022/01/06 03:50:32;;;;;;;15.13;14.43;;;3.90;83.70;;;;;;5069965;28;20040;-81
2022/01/06 03:52:58;;;;;;;15.13;14.43;;;3.90;83.70;;;;;;5052674;28;20029;-81
2022/01/06 03:55:24;;;;;;;15.83;15.03;;;3.80;83.70;;;;;;5070754;28;20058;-81
2022/01/06 03:57:50;;;;;;;15.60;14.90;;;3.80;83.70;;;;;;5053001;28;20029;-81
2022/01/06 04:00:18;;;;;;;15.43;14.73;;;3.80;83.70;;;;;;5070479;28;20488;-81
2022/01/06 04:02:44;;;;;;;15.97;15.20;;;3.80;83.70;;;;;;5069333;28;20462;-81
2022/01/06 04:05:10;;;;;;;15.50;14.80;;;3.80;83.60;;;;;;5052901;28;20041;-81
2022/01/06 04:07:37;;;;;;;14.77;14.07;;;3.70;83.70;;;;;;5067679;28;20381;-81
2022/01/06 04:10:04;;;;;;;15.50;14.70;;;3.70;83.80;;;;;;5052971;28;20032;-81
2022/01/06 04:12:33;;;;;;;15.93;15.17;;;3.70;83.80;;;;;;5052961;28;20029;-81
2022/01/06 04:14:59;;;;;;;15.60;14.83;;;3.70;83.80;;;;;;5068313;28;20025;-81
2022/01/06 04:17:26;;;;;;;17.73;16.63;;;3.70;83.90;;;;;;5036791;28;20417;-81
2022/01/06 04:19:52;;;;;;;15.13;14.43;;;3.70;83.90;;;;;;5069353;28;20512;-81
2022/01/06 04:22:18;;;;;;;17.27;16.03;;;3.60;83.70;;;;;;5068996;28;20028;-81
2022/01/06 04:24:45;;;;;;;16.60;15.60;;;3.60;83.80;;;;;;5052111;28;20040;-81
2022/01/06 04:27:11;;;;;;;15.27;14.57;;;3.60;83.80;;;;;;5071430;28;20034;-81
2022/01/06 04:29:38;;;;;;;16.33;15.53;;;3.60;83.70;;;;;;5070487;28;20028;-81
2022/01/06 04:32:04;;;;;;;15.90;15.10;;;3.60;83.70;;;;;;5068608;28;20047;-81
2022/01/06 04:34:30;;;;;;;16.70;15.80;;;3.60;83.80;;;;;;5070352;28;20398;-80
2022/01/06 04:36:58;;;;;;;16.20;15.20;;;3.60;83.80;;;;;;5052428;28;20031;-81
2022/01/06 04:39:25;;;;;;;15.20;14.50;;;3.60;83.70;;;;;;5069166;28;20040;-80
2022/01/06 04:41:51;;;;;;;16.00;15.20;;;3.60;83.80;;;;;;5072334;28;20032;-81
2022/01/06 04:44:17;;;;;;;16.40;15.40;;;3.50;83.70;;;;;;5069019;28;20036;-81
2022/01/06 04:46:43;;;;;;;16.37;15.47;;;3.60;83.70;;;;;;5066831;28;20047;-81
2022/01/06 04:49:09;;;;;;;14.47;13.77;;;3.50;83.70;;;;;;5070412;28;20318;-81
2022/01/06 04:51:35;;;;;;;16.30;15.50;;;3.50;83.60;;;;;;5067245;28;20028;-81
2022/01/06 04:54:01;;;;;;;15.13;14.43;;;3.50;83.60;;;;;;5070983;28;20039;-81
2022/01/06 04:56:27;;;;;;;15.20;14.50;;;3.50;83.70;;;;;;5069046;28;20036;-81
2022/01/06 04:58:53;;;;;;;15.97;15.17;;;3.40;83.60;;;;;;5069945;28;20484;-81
2022/01/06 05:01:19;;;;;;;15.20;14.50;;;3.40;83.70;;;;;;5051815;28;20040;-80
2022/01/06 05:03:46;;;;;;;15.03;14.33;;;3.40;83.70;;;;;;5070211;28;20032;-81
2022/01/06 05:06:12;;;;;;;15.33;14.63;;;3.40;83.70;;;;;;5052741;28;20036;-81
2022/01/06 05:08:38;;;;;;;15.23;14.53;;;3.40;83.80;;;;;;5070047;28;20025;-79
2022/01/06 05:11:04;;;;;;;15.50;14.70;;;3.40;83.80;;;;;;5052234;28;20044;-80
2022/01/06 05:13:30;;;;;;;15.50;14.80;;;3.30;83.70;;;;;;5069695;28;20027;-80
2022/01/06 05:15:56;;;;;;;15.17;14.47;;;3.30;83.80;;;;;;5067865;28;20041;-80
2022/01/06 05:18:22;;;;;;;14.87;14.17;;;3.40;83.80;;;;;;5068640;28;20032;-81
2022/01/06 05:20:48;;;;;;;15.10;14.30;;;3.30;83.70;;;;;;5071498;28;20032;-81
2022/01/06 05:23:14;;;;;;;15.07;14.37;;;3.30;83.80;;;;;;5068409;28;20036;-81
2022/01/06 05:25:40;;;;;;;15.73;14.87;;;3.30;83.90;;;;;;5067015;28;20032;-81
2022/01/06 05:28:07;;;;;;;15.73;14.93;;;3.30;83.80;;;;;;5068642;28;20028;-80
2022/01/06 05:30:33;;;;;;;15.07;14.33;;;3.30;83.80;;;;;;5067078;28;20029;-80
2022/01/06 05:32:59;;;;;;;15.17;14.37;;;3.30;83.90;;;;;;5087233;28;20028;-79
2022/01/06 05:35:25;;;;;;;15.40;14.70;;;3.30;83.70;;;;;;5069306;28;20040;-80
2022/01/06 05:37:51;;;;;;;15.30;14.60;;;3.30;83.70;;;;;;5072880;28;20029;-79
2022/01/06 05:40:17;;;;;;;15.50;14.80;;;3.30;83.70;;;;;;5072118;28;20039;-81
2022/01/06 05:42:43;;;;;;;14.97;14.27;;;3.30;83.90;;;;;;5073245;28;20408;-80
2022/01/06 05:45:11;;;;;;;15.77;14.90;;;3.30;83.70;;;;;;5074158;28;20414;-79
2022/01/06 05:47:37;;;;;;;15.20;14.50;;;3.30;83.70;;;;;;5085191;28;20036;-80
2022/01/06 05:50:04;;;;;;;16.10;15.30;;;3.30;83.70;;;;;;5075214;28;20024;-80
2022/01/06 05:52:30;;;;;;;15.10;14.40;;;3.20;83.80;;;;;;5071985;28;20043;-79
2022/01/06 05:54:56;;;;;;;14.53;13.83;;;3.30;83.80;;;;;;5071813;28;20024;-79
2022/01/06 05:57:22;;;;;;;15.20;14.47;;;3.30;83.90;;;;;;5054956;28;20055;-79
2022/01/06 05:59:48;;;;;;;15.73;14.87;;;3.30;83.90;;;;;;5107414;28;20028;-79
2022/01/06 06:02:14;;;;;;;15.67;14.53;;;3.30;83.70;;;;;;5104646;28;20037;-80
2022/01/06 06:04:40;;;;;;;15.90;14.67;;;3.30;83.80;;;;;;5103564;28;20291;-79
2022/01/06 06:07:06;;;;;;;15.83;15.03;;;3.30;83.80;;;;;;5088289;28;20043;-81
2022/01/06 06:09:32;;;;;;;15.33;14.63;;;3.30;83.80;;;;;;5071901;28;20533;-80
2022/01/06 06:11:58;;;;;;;16.60;15.60;;;3.30;83.70;;;;;;5071718;28;20484;-80
2022/01/06 06:14:24;;;;;;;18.43;16.80;;;3.30;83.70;;;;;;5102809;27;20028;-78
2022/01/06 06:16:50;;;;;;;16.03;15.20;;;3.30;83.70;;;;;;5071557;28;20524;-79
2022/01/06 06:19:17;;;;;;;16.13;15.13;;;3.30;83.60;;;;;;5054362;28;20032;-79
2022/01/06 06:21:43;;;;;;;14.30;13.60;;;3.30;83.70;;;;;;5071499;28;20091;-80
2022/01/06 06:24:09;;;;;;;15.03;14.33;;;3.30;83.70;;;;;;5053545;28;20056;-80
2022/01/06 06:26:35;;;;;;;14.40;13.70;;;3.30;83.70;;;;;;5088604;28;20040;-79
2022/01/06 06:29:01;;;;;;;15.23;14.43;;;3.30;83.80;;;;;;5104832;28;20473;-80
2022/01/06 06:31:27;;;;;;;16.27;15.13;;;3.30;83.70;;;;;;5071652;28;20024;-79
2022/01/06 06:33:53;;;;;;;15.63;14.87;;;3.30;83.70;;;;;;5070847;28;20470;-81
2022/01/06 06:36:19;;;;;;;15.43;14.63;;;3.40;83.70;;;;;;5054511;28;20035;-80
2022/01/06 06:38:45;;;;;;;16.73;15.83;;;3.30;83.60;;;;;;5074088;28;20469;-80
2022/01/06 06:41:11;;;;;;;15.50;14.70;;;3.30;83.70;;;;;;5072247;28;20452;-80
2022/01/06 06:43:38;;;;;;;17.03;15.40;;;3.30;83.60;;;;;;5052627;28;20043;-81
2022/01/06 06:46:04;;;;;;;15.63;14.83;;;3.40;83.60;;;;;;5053859;28;20405;-81
2022/01/06 06:48:30;;;;;;;15.10;14.40;;;3.30;83.60;;;;;;5070633;28;20406;-79
2022/01/06 06:50:58;;;;;;;17.07;16.17;;;3.30;83.70;;;;;;5072277;28;20035;-81
2022/01/06 06:53:24;;;;;;;15.43;14.63;;;3.30;84.40;;;;;;5070715;28;20032;-81
2022/01/06 06:55:50;;;;;;;14.93;14.23;;;3.30;83.60;;;;;;5070723;28;20028;-82
2022/01/06 06:58:16;;;;;;;17.33;16.23;;;3.30;83.70;;;;;;5053344;28;20041;-80
2022/01/06 07:00:42;;;;;;;15.77;14.97;;;3.30;83.70;;;;;;5053376;28;20041;-81
2022/01/06 07:03:09;;;;;;;15.60;14.87;;;3.30;83.70;;;;;;5072449;28;20409;-80
2022/01/06 07:05:36;;;;;;;17.13;15.83;;;3.30;83.70;;;;;;5070570;28;20043;-80
2022/01/06 07:08:02;;;;;;;15.47;14.57;;;3.30;83.70;;;;;;5070819;28;20040;-80
2022/01/06 07:10:28;;;;;;;14.47;13.77;;;3.30;83.80;;;;;;5069927;28;20032;-80
2022/01/06 07:12:54;;;;;;;16.67;15.67;;;3.30;83.80;;;;;;5071685;28;21553;-80
2022/01/06 07:15:20;;;;;;;15.53;14.73;;;3.30;83.80;;;;;;5069675;28;20466;-79
2022/01/06 07:17:46;;;;;;;14.97;14.07;;;3.30;83.70;;;;;;5105692;28;20397;-80
2022/01/06 07:20:12;;;;;;;16.20;15.27;;;3.30;83.70;;;;;;5086834;28;20047;-80
2022/01/06 07:22:38;;;;;;;16.70;15.80;;;3.30;83.70;;;;;;5102368;28;20215;-80
2022/01/06 07:25:05;;;;;;;18.33;17.23;;;3.30;83.60;;;;;;5071304;28;20035;-80
2022/01/06 07:27:31;;;;;;;15.70;14.83;;;3.30;83.60;;;;;;5052648;28;20485;-80
2022/01/06 07:29:57;;;;;;;16.40;15.60;;;3.20;83.60;;;;;;5072864;28;20032;-79
2022/01/06 07:32:26;;;;;;;17.77;16.43;;;3.20;83.70;;;;;;5070347;28;20115;-80
2022/01/06 07:34:52;;;;;;;14.53;13.83;;;3.20;83.70;;;;;;5071083;28;20043;-80
2022/01/06 07:37:18;;;;;;;16.57;15.47;;;3.20;83.60;;;;;;5070968;28;20470;-80
2022/01/06 07:39:45;;;;;;;16.67;15.67;;;3.20;83.60;;;;;;5069956;28;20035;-80
2022/01/06 07:42:11;;;;;;;14.87;14.17;;;3.10;83.60;;;;;;5072209;28;20028;-80
2022/01/06 07:44:37;;;;;;;15.90;14.93;;;3.00;83.60;;;;;;5070608;28;20033;-80
2022/01/06 07:47:03;;;;;;;15.93;15.03;;;3.00;83.90;;;;;;5068673;28;20056;-80
2022/01/06 07:49:29;;;;;;;14.93;14.17;;;3.00;84.00;;;;;;5053118;28;20024;-80
2022/01/06 07:51:56;;;;;;;14.70;14.00;;;3.00;83.90;;;;;;5036333;28;20481;-80
2022/01/06 07:54:22;;;;;;;16.07;15.07;;;3.00;83.80;;;;;;5070889;28;20025;-80
2022/01/06 07:56:48;;;;;;;17.03;16.03;;;3.00;83.80;;;;;;5088398;28;20036;-80
2022/01/06 07:59:14;;;;;;;14.27;13.57;;;3.00;83.80;;;;;;5070011;28;20504;-80
2022/01/06 08:01:40;;;;;;;14.20;13.50;;;3.00;83.70;;;;;;5067566;28;20033;-80
2022/01/06 08:04:06;;;;;;;16.00;15.10;;;3.00;83.90;;;;;;5070722;28;20389;-80
2022/01/06 08:06:32;;;;;;;16.23;15.17;;;3.00;84.00;;;;;;5052426;28;20040;-80
2022/01/06 08:08:58;;;;;;;15.93;15.13;;;3.00;83.90;;;;;;5072378;28;20028;-80
2022/01/06 08:11:24;;;;;;;18.07;17.03;;;3.00;83.90;;;;;;5069362;28;20042;-80
2022/01/06 08:13:50;;;;;;;15.73;14.93;;;3.10;83.90;;;;;;5070247;28;20028;-79
2022/01/06 08:16:16;;;;;;;15.70;14.90;;;3.10;83.90;;;;;;5031985;28;20072;-79
2022/01/06 08:18:44;;;;;;;16.17;15.27;;;3.10;83.80;;;;;;5050431;28;20524;-80
2022/01/06 08:21:10;;;;;;;14.67;13.97;;;3.10;83.80;;;;;;5051876;28;20025;-80
2022/01/06 08:23:36;;;;;;;16.67;15.77;;;3.20;83.80;;;;;;5084503;28;20051;-80
2022/01/06 08:26:03;;;;;;;15.40;14.60;;;3.20;83.80;;;;;;5048400;28;20032;-80
2022/01/06 08:28:29;;;;;;;15.40;14.63;;;3.30;83.70;;;;;;5048984;28;20028;-79
2022/01/06 08:30:56;;;;;;;15.33;14.63;;;3.30;83.70;;;;;;5037912;28;20405;-80
2022/01/06 08:33:22;;;;;;;15.43;14.73;;;3.30;83.70;;;;;;5069083;28;20051;-80
2022/01/06 08:35:48;;;;;;;18.20;16.70;;;3.40;83.60;;;;;;5104885;28;20024;-80
2022/01/06 08:38:14;;;;;;;16.37;15.47;;;3.40;83.60;;;;;;5070022;28;20029;-81
2022/01/06 08:40:40;;;;;;;17.10;16.20;;;3.50;83.70;;;;;;5066975;28;20024;-79
2022/01/06 08:43:06;;;;;;;16.33;15.43;;;3.50;83.60;;;;;;5068753;28;20058;-79
2022/01/06 08:45:32;;;;;;;16.80;15.90;;;3.60;83.50;;;;;;5051287;28;20032;-79
2022/01/06 08:47:59;;;;;;;15.00;14.20;;;3.60;84.30;;;;;;5070817;28;20035;-79
2022/01/06 08:50:25;;;;;;;16.90;16.00;;;3.60;83.40;;;;;;5070412;28;20036;-79
2022/01/06 08:52:51;;;;;;;17.40;15.90;;;3.60;83.40;;;;;;5069063;28;20037;-81
2022/01/06 08:55:17;;;;;;;15.10;14.40;;;3.70;84.10;;;;;;5069072;28;20385;-81
2022/01/06 08:57:43;;;;;;;15.90;15.10;;;3.70;83.30;;;;;;5068787;28;20033;-82
2022/01/06 09:00:10;;;;;;;15.60;14.87;;;3.70;83.20;;;;;;5071016;28;20029;-80
2022/01/06 09:02:37;;;;;;;17.63;16.73;;;3.70;83.20;;;;;;5082489;28;20044;-80
2022/01/06 09:05:06;;;;;;;19.47;18.20;;;3.70;83.20;;;;;;5064970;28;20031;-80
2022/01/06 09:07:35;;;;;;;16.97;16.07;;;3.70;83.30;;;;;;5068849;28;20420;-80
2022/01/06 09:10:01;;;;;;;16.40;15.60;;;3.70;83.40;;;;;;5069302;28;20025;-80
2022/01/06 09:12:27;;;;;;;17.90;16.33;;;3.70;83.40;;;;;;5055078;28;20052;-80
2022/01/06 09:14:53;;;;;;;17.47;16.40;;;3.80;83.50;;;;;;5074534;28;20035;-80
2022/01/06 09:17:19;;;;;;;15.53;14.73;;;3.80;83.30;;;;;;5073290;28;20409;-80
2022/01/06 09:19:45;;;;;;;16.90;15.67;;;3.80;83.20;;;;;;5054455;28;20032;-81
2022/01/06 09:22:11;;;;;;;15.50;14.70;;;3.90;83.20;;;;;;5073503;28;20040;-81
2022/01/06 09:24:38;;;;;;;15.87;15.10;;;3.90;83.30;;;;;;5071567;28;20375;-80
2022/01/06 09:27:04;;;;;;;16.30;15.50;;;3.90;83.30;;;;;;5053715;28;20041;-81
2022/01/06 09:29:30;;;;;;;16.83;15.83;;;4.00;83.30;;;;;;5073416;28;20033;-81
2022/01/06 09:31:56;;;;;;;14.90;14.20;;;4.00;83.30;;;;;;5055102;28;20417;-83
2022/01/06 09:34:22;;;;;;;16.40;15.10;;;4.10;83.40;;;;;;5072068;28;20061;-82
2022/01/06 09:36:48;;;;;;;17.40;16.50;;;4.10;83.30;;;;;;5055488;28;20032;-82
2022/01/06 09:39:14;;;;;;;16.40;15.50;;;4.10;83.20;;;;;;5072611;28;20044;-82
2022/01/06 09:41:40;;;;;;;15.50;14.80;;;4.20;82.50;;;;;;5056233;28;20045;-81
2022/01/06 09:44:07;;;;;;;17.87;16.87;;;4.20;83.10;;;;;;5071940;28;20497;-82
2022/01/06 09:46:33;;;;;;;16.57;15.77;;;4.20;83.20;;;;;;5054825;28;20036;-82
2022/01/06 09:49:00;;;;;;;16.90;15.57;;;4.20;83.20;;;;;;5060365;28;20025;-82
2022/01/06 09:51:27;;;;;;;16.77;15.97;;;4.30;83.20;;;;;;5055247;28;20028;-82
2022/01/06 09:53:54;;;;;;;16.80;16.00;;;4.30;83.20;;;;;;5090317;28;20040;-81
2022/01/06 09:56:21;;;;;;;17.07;16.07;;;4.40;83.20;;;;;;5088068;28;20032;-84
2022/01/06 09:58:47;;;;;;;15.77;14.93;;;4.40;83.10;;;;;;5088522;28;20024;-81
2022/01/06 10:01:14;;;;;;;17.97;16.80;;;4.50;83.10;;;;;;5072288;28;20063;-82
2022/01/06 10:03:45;;;;;;;16.67;15.37;;;4.60;83.10;;;;;;5070333;28;20048;-82
2022/01/06 10:06:15;;;;;;;15.77;15.03;;;4.60;83.00;;;;;;5056888;28;20040;-82
2022/01/06 10:08:42;;;;;;;17.10;16.03;;;4.60;82.90;;;;;;5073213;28;20020;-82
2022/01/06 10:11:18;;;;;;;16.13;15.33;;;4.70;83.00;;;;;;5039231;28;20059;-83
2022/01/06 10:13:45;;;;;;;16.90;16.10;;;4.70;83.10;;;;;;5071591;28;20381;-81
2022/01/06 10:16:16;;;;;;;16.20;15.40;;;4.80;83.00;;;;;;5072074;28;20048;-85
2022/01/06 10:18:56;;;;;;;17.85;16.23;;;4.90;83.00;;;;;;5038393;28;20052;-81
2022/01/06 10:21:22;;;;;;;16.20;15.40;;;5.00;82.90;;;;;;5054623;28;20036;-81
2022/01/06 10:24:08;;;;;;;17.70;16.73;;;5.10;82.80;;;;;;5106749;28;20021;-82
2022/01/06 10:26:35;;;;;;;16.63;15.80;;;5.10;82.70;;;;;;5071144;28;20045;-82
2022/01/06 10:29:01;;;;;;;17.60;16.60;;;5.20;82.60;;;;;;5055835;28;20044;-83
2022/01/06 10:31:28;;;;;;;16.20;15.40;;;5.20;82.70;;;;;;5070657;28;20037;-82
2022/01/06 10:33:54;;;;;;;17.13;16.23;;;5.20;82.60;;;;;;5072179;28;20016;-80
2022/01/06 10:36:26;;;;;;;17.33;16.50;;;5.30;82.60;;;;;;5071891;28;20025;-80
2022/01/06 10:38:54;;;;;;;16.30;15.47;;;5.30;82.70;;;;;;5071256;28;20036;-80
2022/01/06 10:41:20;;;;;;;16.40;15.60;;;5.30;82.70;;;;;;5054110;28;20489;-83
2022/01/06 10:43:50;;;;;;;16.00;15.23;;;5.40;82.80;;;;;;5070743;28;20028;-80
2022/01/06 10:46:44;;;;;;;15.85;15.15;;;5.40;82.70;;;;;;5071510;28;20036;-79
2022/01/06 10:49:15;;;;;;;18.13;16.77;;;5.60;82.70;;;;;;5056824;28;20025;-80
2022/01/06 10:51:49;;;;;;;16.05;15.25;;;5.60;82.60;;;;;;5037552;28;20033;-80
2022/01/06 10:54:17;;;;;;;16.70;15.90;;;5.80;82.60;;;;;;5072001;28;20029;-80
2022/01/06 10:56:58;;;;;;;15.17;14.47;;;5.90;82.40;;;;;;5072468;28;20017;-81
2022/01/06 10:59:29;;;;;;;15.27;14.57;;;6.10;82.30;;;;;;5072244;28;20028;-85
2022/01/06 11:01:55;;;;;;;15.68;14.98;;;6.30;82.20;;;;;;5053791;28;20412;-81
2022/01/06 11:04:22;;;;;;;16.17;15.37;;;6.60;81.80;;;;;;5071889;28;20405;-80
2022/01/06 11:06:49;;;;;;;16.30;15.50;;;6.90;81.10;;;;;;5071741;28;20033;-80
2022/01/06 11:09:15;;;;;;;17.80;16.90;;;7.10;80.60;;;;;;5054375;28;20029;-80
2022/01/06 11:14:26;;;;;;;20.17;18.83;;;7.30;80.30;;;;;;5070682;28;20047;-81
2022/01/06 11:16:52;;;;;;;17.73;16.83;;;7.30;80.60;;;;;;5069363;28;20056;-81
2022/01/06 11:19:22;;;;;;;17.47;16.47;;;7.20;80.80;;;;;;5070284;28;20043;-81
2022/01/06 11:21:48;;;;;;;18.07;17.13;;;7.30;81.10;;;;;;5052570;28;20025;-81
2022/01/06 11:24:20;;;;;;;17.67;16.77;;;7.40;81.20;;;;;;5070482;28;20021;-81
2022/01/06 11:27:15;;;;;;;17.13;16.33;;;7.50;81.00;;;;;;5070212;28;20036;-80
2022/01/06 11:29:42;;;;;;;17.50;16.60;;;7.70;80.70;;;;;;5088261;28;20041;-79
2022/01/06 11:32:20;;;;;;;17.03;16.23;;;7.90;80.40;;;;;;5103055;28;20028;-79
2022/01/06 11:34:49;;;;;;;18.50;17.43;;;8.10;80.20;;;;;;5085152;28;20032;-79
2022/01/06 11:37:16;;;;;;;18.40;17.43;;;8.20;80.00;;;;;;5103129;28;20500;-80
2022/01/06 11:39:42;;;;;;;18.73;17.83;;;8.30;80.00;;;;;;5054092;28;20508;-79
2022/01/06 11:42:14;;;;;;;18.90;18.00;;;8.40;80.00;;;;;;5070993;28;20032;-80
2022/01/06 11:44:51;;;;;;;20.03;19.03;;;8.60;80.00;;;;;;5072376;28;20024;-79
2022/01/06 11:47:31;;;;;;;19.50;18.50;;;8.80;79.70;;;;;;5070286;28;20051;-80
2022/01/06 11:50:13;;;;;;;19.83;18.83;;;9.10;79.40;;;;;;5037003;28;20036;-80
2022/01/06 11:52:53;;;;;;;19.77;18.77;;;9.30;78.90;;;;;;5070300;28;20025;-80
2022/01/06 11:55:20;;;;;;;19.42;18.50;;;9.50;78.60;;;;;;5051682;28;20039;-80
2022/01/06 11:57:46;;;;;;;20.87;19.87;;;9.70;78.30;;;;;;5053199;28;20024;-80
2022/01/06 12:00:25;;;;;;;22.75;21.50;;;10.00;78.80;;;;;;5071256;28;20028;-80
2022/01/06 12:02:59;;;;;;;23.42;21.98;;;10.10;77.70;;;;;;5103073;28;20032;-79
2022/01/06 12:05:26;;;;;;;22.27;21.08;;;10.30;77.50;;;;;;5070553;28;20036;-80
2022/01/06 12:07:53;;;;;;;1999.90;999.90;;;10.40;77.30;;;;;;5070180;28;20444;-79
2022/01/06 12:10:20;;;;;;;1999.90;999.90;;;10.50;77.20;;;;;;5069532;28;20035;-79
2022/01/06 12:12:48;;;;;;;1999.90;999.90;;;10.60;77.10;;;;;;5052909;28;20028;-80
2022/01/06 12:15:15;;;;;;;1999.90;999.90;;;10.70;77.10;;;;;;5053309;28;20409;-80
2022/01/06 12:17:52;;;;;;;1999.90;999.90;;;10.80;77.00;;;;;;5070750;28;20051;-79
2022/01/06 12:20:28;;;;;;;1999.90;999.90;;;10.80;77.00;;;;;;5069051;28;20362;-79
2022/01/06 12:22:54;;;;;;;1999.90;999.90;;;10.90;76.90;;;;;;5052554;28;20028;-79
2022/01/06 12:25:25;;;;;;;1999.90;999.90;;;10.90;77.00;;;;;;5052710;28;20028;-79
2022/01/06 12:27:54;;;;;;;1999.90;999.90;;;10.80;77.20;;;;;;5070504;28;20032;-79
2022/01/06 12:30:21;;;;;;;1999.90;999.90;;;10.90;77.40;;;;;;5068777;28;20024;-79
2022/01/06 12:32:58;;;;;;;1999.90;999.90;;;11.00;77.30;;;;;;5087859;28;20028;-80
2022/01/06 12:35:41;;;;;;;1999.90;999.90;;;11.10;76.90;;;;;;5100936;28;20024;-80
2022/01/06 12:38:07;;;;;;;1999.90;999.90;;;11.20;76.80;;;;;;5085412;28;20041;-79
2022/01/06 12:40:38;;;;;;;1999.90;999.90;;;11.30;76.60;;;;;;5068591;28;20039;-79
2022/01/06 12:43:17;;;;;;;1999.90;999.90;;;11.30;76.50;;;;;;5069265;28;20039;-79
2022/01/06 12:45:43;;;;;;;1999.90;999.90;;;11.40;76.50;;;;;;5064616;28;20572;-79